^^

Meteo Aereoporti Centro-Italia

 

 
LIRZ - Perugia S.Egidio (208 m.)
Dati ricevuti: 06/07/2020 11:50
Sereno
Sereno
 Vento da ENE
Vento: ENE 17 km/h
TEMPERATURA: 29°C
Indice di Calore: 28°C
P.to di Rugiada: 14°C
Umidità: 40%
Pressione: 1010 hPa
Nuvole: Sereno
Visibilità: 10 km
2020/07/06 09:50 LIRZ 060950Z AUTO 06009KT 020V090 9999 NCD 29/14 Q1010
 
LIPY - Ancona Falconara (12 m.)
Dati ricevuti: 06/07/2020 11:50
Qualche nuvola
Qualche nuvola
 Vento da N
Vento: N 19 km/h
TEMPERATURA: 28°C
Indice di Calore: 29°C
P.to di Rugiada: 20°C
Umidità: 62%
Pressione: 1010 hPa
Nuvole: Qualche nuvola
Visibilità: 10 km
Dettagli Nuvole: Qualche nuvola 732 m
2020/07/06 09:50 LIPY 060950Z AUTO 35010KT 320V020 9999 FEW024/// 28/20 Q1010
 
LIPR - Rimini Miramare (12 m.)
Dati ricevuti: 06/07/2020 11:50
Sereno
Sereno
 Vento da N
Vento: N 15 km/h
TEMPERATURA: 28°C
Indice di Calore: 28°C
P.to di Rugiada: 17°C
Umidità: 51%
Pressione: 1010 hPa
Condizioni generali: Sereno
Visibilità: oltre 10 km
2020/07/06 09:50 LIPR 060950Z 35008KT 320V020 CAVOK 28/17 Q1010
 
LIRF - Roma Fiumicino (2 m.)
Dati ricevuti: 06/07/2020 11:50
Sereno
Sereno
 Vento da SW
Vento: SW 15 km/h
TEMPERATURA: 30°C
Indice di Calore: 31°C
P.to di Rugiada: 18°C
Umidità: 49%
Pressione: 1009 hPa
Condizioni generali: Sereno
Visibilità: oltre 10 km
2020/07/06 09:50 LIRF 060950Z 22008KT 180V260 CAVOK 30/18 Q1009 NOSIG
 
LIRA - Roma Ciampino (129 m.)
Dati ricevuti: 06/07/2020 11:50
Sereno
Sereno
 Vento da direzione variabile
Vento: direzione variabile 6 km/h
TEMPERATURA: 30°C
Indice di Calore: 29°C
P.to di Rugiada: 15°C
Umidità: 40%
Pressione: 1009 hPa
Condizioni generali: Sereno
Visibilità: oltre 10 km
2020/07/06 09:50 LIRA 060950Z VRB03KT CAVOK 30/15 Q1009
 
LIRU - Roma Urbe (17 m.)
Dati ricevuti: 06/07/2020 10:50
Sereno
Sereno
 Vento da direzione variabile
Vento: direzione variabile 6 km/h
TEMPERATURA: 29°C
P.to di Rugiada: 12°C
Umidità: 35%
Pressione: 1009 hPa
Condizioni generali: Sereno
Visibilità: oltre 10 km
2020/07/06 08:50 LIRU 060850Z VRB03KT CAVOK 29/12 Q1009
 
LIVF - Frontone (570 m.)
Dati ricevuti: 06/07/2020 09:55
Dati non aggiornati
Sereno
Sereno
 Vento da NW
Vento: NW 4 km/h
TEMPERATURA: 25°C
P.to di Rugiada: 12°C
Umidità: 44%
Pressione: 1012 hPa
Condizioni generali: Sereno
Visibilità: oltre 10 km
2020/07/06 07:55 LIVF 060755Z 32002KT CAVOK 25/12 Q1012
 
LIRQ - Firenze Peretola (40 m.)
Dati ricevuti: 06/07/2020 11:50
Sereno
Sereno
 Vento da W
Vento: W 9 km/h
TEMPERATURA: 32°C
P.to di Rugiada: 16°C
Umidità: 38%
Pressione: 1009 hPa
Condizioni generali: Sereno
Visibilità: oltre 10 km
2020/07/06 09:50 LIRQ 060950Z 27005KT CAVOK 32/16 Q1009
 
LIBP - Pescara (10 m.)
Dati ricevuti: 06/07/2020 11:50
Sereno
Sereno
 Vento da NNE
Vento: NNE 19 km/h
TEMPERATURA: 28°C
Indice di Calore: 28°C
P.to di Rugiada: 17°C
Umidità: 51%
Pressione: 1010 hPa
Nuvole: Sereno
Visibilità: 10 km
2020/07/06 09:50 LIBP 060950Z AUTO 03010KT 9999 NCD 28/17 Q1010
 
LIRV - Viterbo (300 m.)
Dati ricevuti: 06/07/2020 10:55
Sereno
Sereno
 Vento da ENE
Vento: ENE 20 km/h
TEMPERATURA: 26°C
P.to di Rugiada: 14°C
Umidità: 48%
Pressione: 1011 hPa
Condizioni generali: Sereno
Visibilità: oltre 10 km
2020/07/06 08:55 LIRV 060855Z 06011KT CAVOK 26/14 Q1011
 
LIQN - Rieti (389 m.)
Dati ricevuti: 06/07/2020 10:50
Sereno
Sereno
 Vento da direzione variabile
Vento: direzione variabile 6 km/h
TEMPERATURA: 25°C
P.to di Rugiada: 12°C
Umidità: 44%
Pressione: 1011 hPa
Condizioni generali: Sereno
Visibilità: oltre 10 km
2020/07/06 08:50 LIQN 060850Z VRB03KT CAVOK 25/12 Q1011
 
LIRG - Guidonia -RM- (88 m.)
Dati ricevuti: 06/07/2020 10:55
Qualche nuvola
Qualche nuvola
 Vento da SSW
Vento: SSW 7 km/h
TEMPERATURA: 29°C
Indice di Calore: 29°C
P.to di Rugiada: 17°C
Umidità: 48%
Pressione: 1010 hPa
Nuvole: Qualche nuvola
Visibilità: 10 km
Dettagli Nuvole: Qualche nuvola 1067 m
2020/07/06 08:55 LIRG 060855Z 21004KT 9999 FEW035 29/17 Q1010
 
LIRK - Terminillo -RI-(1874 m.)
Dati ricevuti: 06/07/2020 10:55

 Vento da direzione variabile
Vento: direzione variabile 7 km/h
TEMPERATURA: 16°C
P.to di Rugiada: 6°C
Umidità: 52%
Pressione: 1020 hPa
2020/07/06 08:55 LIRK 060855Z AUTO VRB04KT //// 16/06 Q1020
 
LIPK - Forlì (27 m.)
Dati ricevuti: 06/07/2020 11:50
Sereno
Sereno
 Vento da direzione variabile
Vento: direzione variabile 6 km/h
TEMPERATURA: 30°C
Indice di Calore: 31°C
P.to di Rugiada: 18°C
Umidità: 49%
Pressione: 1010 hPa
Condizioni generali: Sereno
Visibilità: oltre 10 km
2020/07/06 09:50 LIPK 060950Z VRB03KT CAVOK 30/18 Q1010
 
LIRS - Grosseto (5 m.)
Dati ricevuti: 06/07/2020 10:55
Sereno
Sereno
 Vento da ENE
Vento: ENE 19 km/h
TEMPERATURA: 31°C
P.to di Rugiada: 12°C
Umidità: 31%
Pressione: 1010 hPa
Condizioni generali: Sereno
Visibilità: oltre 10 km
2020/07/06 08:55 LIRS 060855Z 06010KT CAVOK 31/12 Q1010
 
LIRP - Pisa S.Giusto (2 m.)
Dati ricevuti: 06/07/2020 11:45
Qualche nuvola
Qualche nuvola
 Vento da W
Vento: W 9 km/h
TEMPERATURA: 27°C
Indice di Calore: 29°C
P.to di Rugiada: 22°C
Umidità: 74%
Pressione: 1011 hPa
Nuvole: Qualche nuvola
Visibilità: 10 km
Dettagli Nuvole: Qualche nuvola 762 m
2020/07/06 09:45 LIRP 060945Z 27005KT 9999 FEW025 27/22 Q1011 NOSIG